Time;durP1;ratioP1;P1;durP2;ratioP2;P2;SDS_P1;SDS_P2;PMS_P1;PMS_P2;Temp;Humidity;BMP_temperature;BMP_pressure;BME280_temperature;BME280_humidity;BME280_pressure;Samples;Min_cycle;Max_cycle;Signal;HPM_P1;HPM_P2
2023/01/19 00:00:46;;;;;;;31.10;6.07;;;14.90;64.00;;;15.04;46.29;93741.13;5044268;28;20455;-56
2023/01/19 00:03:17;;;;;;;28.77;4.80;;;14.90;64.30;;;15.03;46.11;93755.38;5042634;28;20629;-57
2023/01/19 00:05:44;;;;;;;54.17;6.47;;;14.80;64.00;;;15.03;46.06;93750.91;5044389;28;20452;-58
2023/01/19 00:08:16;;;;;;;41.33;5.27;;;14.90;64.00;;;15.05;45.66;93762.09;5046180;28;20475;-57
2023/01/19 00:10:44;;;;;;;48.80;6.47;;;14.90;63.50;;;15.08;45.63;93768.03;5043872;28;20448;-57
2023/01/19 00:13:11;;;;;;;46.53;7.97;;;14.90;63.50;;;15.11;45.60;93783.53;5043568;28;20476;-57
2023/01/19 00:15:38;;;;;;;42.87;5.60;;;14.90;63.60;;;15.12;45.86;93780.69;5044854;28;20518;-58
2023/01/19 00:18:06;;;;;;;39.07;4.63;;;14.90;63.60;;;15.13;45.92;93778.88;5045026;28;20540;-56
2023/01/19 00:20:34;;;;;;;45.87;5.80;;;15.00;63.80;;;15.12;46.05;93791.28;5044194;28;20455;-56
2023/01/19 00:23:01;;;;;;;31.93;4.63;;;14.90;64.00;;;15.12;45.96;93774.56;5046005;28;20515;-56
2023/01/19 00:25:30;;;;;;;36.60;6.43;;;14.90;64.90;;;15.12;46.23;93793.94;5045710;28;20531;-56
2023/01/19 00:27:57;;;;;;;60.73;7.40;;;14.90;64.20;;;15.12;46.24;93795.75;5046033;28;20475;-58
2023/01/19 00:30:25;;;;;;;32.33;4.43;;;15.00;64.50;;;15.10;46.06;93803.09;5044409;28;20470;-56
2023/01/19 00:32:52;;;;;;;38.20;5.03;;;14.90;64.30;;;15.09;46.03;93777.59;5044796;28;20476;-56
2023/01/19 00:35:19;;;;;;;40.53;5.20;;;14.90;63.90;;;15.09;45.79;93807.56;5045322;28;20451;-61
2023/01/19 00:37:47;;;;;;;32.83;6.27;;;14.90;63.90;;;15.09;45.86;93789.03;5045385;28;20563;-56
2023/01/19 00:40:14;;;;;;;26.77;5.37;;;14.90;63.90;;;15.11;45.69;93784.34;5044472;28;20459;-56
2023/01/19 00:42:43;;;;;;;50.60;7.13;;;14.90;63.80;;;15.11;45.70;93799.44;5045898;28;21008;-56
2023/01/19 00:45:13;;;;;;;45.83;5.23;;;14.90;63.50;;;15.11;45.78;93784.34;5044983;28;20447;-57
2023/01/19 00:47:41;;;;;;;44.83;5.10;;;14.90;63.50;;;15.11;45.65;93781.69;5045657;28;20483;-59
2023/01/19 00:50:11;;;;;;;34.80;5.57;;;14.90;63.40;;;15.11;45.49;93794.13;5044185;28;20510;-57
2023/01/19 00:52:39;;;;;;;33.33;4.13;;;15.00;63.40;;;15.11;45.38;93788.84;5042024;28;20532;-57
2023/01/19 00:55:07;;;;;;;32.17;4.70;;;14.90;63.00;;;15.13;45.09;93776.22;5045568;28;20458;-57
2023/01/19 00:57:35;;;;;;;27.63;3.67;;;15.00;62.90;;;15.15;45.10;93768.88;5041497;28;20471;-56
2023/01/19 01:00:05;;;;;;;50.20;5.97;;;15.00;62.50;;;15.16;44.97;93818.19;5040058;28;20479;-55
2023/01/19 01:02:33;;;;;;;38.53;5.43;;;15.00;62.40;;;15.16;44.87;93786.41;5045443;28;20499;-57
2023/01/19 01:05:01;;;;;;;49.80;5.93;;;15.00;62.20;;;15.16;44.62;93792.53;5043768;28;20462;-56
2023/01/19 01:07:29;;;;;;;46.90;7.00;;;15.00;62.00;;;15.16;44.49;93797.81;5044073;28;20455;-57
2023/01/19 01:09:56;;;;;;;50.57;6.17;;;15.00;62.00;;;15.17;44.63;93780.94;5046156;28;20467;-57
2023/01/19 01:12:23;;;;;;;61.67;6.17;;;15.00;61.90;;;15.19;44.47;93797.44;5044227;28;20551;-56
2023/01/19 01:14:51;;;;;;;49.33;7.10;;;15.00;61.50;;;15.19;44.49;93797.44;5041992;28;20474;-56
2023/01/19 01:17:23;;;;;;;24.40;5.47;;;15.00;61.40;;;15.20;44.48;93777.06;5043729;28;20463;-57
2023/01/19 01:19:51;;;;;;;37.37;5.50;;;15.00;61.40;;;15.22;44.49;93788.28;5045370;28;20480;-55
2023/01/19 01:22:18;;;;;;;48.77;6.30;;;15.00;61.40;;;15.21;44.45;93779.53;5044069;28;20510;-56
2023/01/19 01:24:45;;;;;;;80.47;5.77;;;15.00;61.40;;;15.22;44.65;93777.69;5043540;28;21032;-57
2023/01/19 01:27:13;;;;;;;69.17;7.37;;;15.00;61.40;;;15.22;44.36;93789.09;5042989;28;20451;-57
2023/01/19 01:29:40;;;;;;;61.20;5.97;;;15.00;61.40;;;15.24;44.40;93792.38;5041956;28;20468;-56
2023/01/19 01:32:08;;;;;;;32.07;4.50;;;15.00;61.40;;;15.24;44.42;93794.19;5042496;28;20462;-57
2023/01/19 01:34:36;;;;;;;38.33;5.00;;;15.00;61.40;;;15.24;44.54;93788.91;5043181;28;20479;-57
2023/01/19 01:37:07;;;;;;;47.07;5.50;;;15.10;61.50;;;15.23;44.52;93787.28;5043115;28;20471;-57
2023/01/19 01:39:34;;;;;;;49.37;5.70;;;15.00;61.40;;;15.22;44.40;93798.88;5042619;28;20598;-56
2023/01/19 01:42:01;;;;;;;37.70;5.50;;;15.00;61.40;;;15.21;44.25;93789.28;5044362;28;21492;-55
2023/01/19 01:44:50;;;;;;;49.17;5.50;;;15.00;61.40;;;15.20;43.99;93799.06;5040304;28;20487;-55
2023/01/19 01:47:23;;;;;;;61.30;5.60;;;15.00;60.90;;;15.19;43.93;93792.13;5041978;28;20959;-58
2023/01/19 01:49:53;;;;;;;30.80;5.37;;;15.00;60.70;;;15.22;44.00;93801.53;5043648;28;20495;-56
2023/01/19 01:52:20;;;;;;;56.73;4.93;;;15.00;60.70;;;15.23;43.83;93819.06;5044253;28;20455;-57
2023/01/19 01:54:47;;;;;;;34.23;7.67;;;15.10;60.90;;;15.24;43.94;93810.09;5040568;28;20540;-56
2023/01/19 01:57:15;;;;;;;55.43;6.77;;;15.00;60.80;;;15.23;43.98;93797.88;5042760;28;20460;-55
2023/01/19 01:59:45;;;;;;;35.50;4.70;;;15.00;60.80;;;15.24;43.89;93788.91;5041122;28;20484;-57
2023/01/19 02:05:04;;;;;;;38.17;5.70;;;15.00;60.60;;;15.24;43.76;93778.31;5044334;28;20440;-57
2023/01/19 02:13:17;;;;;;;46.30;4.83;;;15.10;59.80;;;15.31;43.38;93778.38;5040510;28;20475;-55
2023/01/19 02:15:44;;;;;;;36.57;4.97;;;15.10;60.00;;;15.30;43.34;93782.81;5043934;28;20551;-57
2023/01/19 02:18:12;;;;;;;23.30;4.53;;;15.10;59.80;;;15.32;43.16;93766.72;5043489;28;20476;-58
2023/01/19 02:20:43;;;;;;;29.90;5.60;;;15.10;59.70;;;15.32;43.11;93764.91;5047551;28;20464;-57
2023/01/19 02:23:17;;;;;;;42.67;5.13;;;15.10;59.70;;;15.33;42.96;93781.63;5046127;28;20664;-56
2023/01/19 02:25:46;;;;;;;62.57;4.83;;;15.10;59.40;;;15.34;43.03;93765.53;5045438;28;20462;-57
2023/01/19 02:28:13;;;;;;;29.67;4.33;;;15.20;60.20;;;15.35;42.76;93761.03;5047944;28;20475;-58
2023/01/19 02:30:40;;;;;;;56.13;6.23;;;15.10;59.30;;;15.36;43.23;93776.75;5047084;28;20517;-57
2023/01/19 02:33:07;;;;;;;46.00;4.93;;;15.20;59.30;;;15.37;42.89;93765.13;5046901;28;20572;-55
2023/01/19 02:35:36;;;;;;;35.90;3.47;;;15.20;59.30;;;15.39;42.77;93762.28;5046598;28;20456;-56
2023/01/19 02:38:04;;;;;;;37.60;4.53;;;15.20;59.00;;;15.41;42.44;93766.38;5047100;28;20563;-56
2023/01/19 02:40:31;;;;;;;31.53;3.67;;;15.20;58.60;;;15.42;42.70;93748.66;5046554;28;20491;-57
2023/01/19 02:43:00;;;;;;;37.13;4.10;;;15.20;58.80;;;15.42;42.42;93765.34;5045917;28;20483;-56
2023/01/19 02:45:27;;;;;;;18.93;3.23;;;15.20;58.60;;;15.44;42.31;93751.91;5047761;28;20467;-57
2023/01/19 02:47:55;;;;;;;49.10;5.07;;;15.30;58.60;;;15.46;42.03;93768.44;5046928;28;21743;-57
2023/01/19 02:50:48;;;;;;;33.63;4.40;;;15.30;58.20;;;15.50;41.65;93774.16;5047188;28;20460;-57
2023/01/19 02:53:54;;;;;;;35.97;4.50;;;15.30;57.70;;;15.51;41.26;93744.81;5042214;28;20549;-56
2023/01/19 02:56:48;;;;;;;38.07;3.43;;;15.30;57.50;;;15.52;41.73;93757.06;5046102;28;21009;-57
2023/01/19 02:59:23;;;;;;;21.23;3.70;;;15.30;57.50;;;15.55;41.68;93753.19;5045788;28;20495;-56
2023/01/19 03:02:15;;;;;;;38.10;3.83;;;15.30;57.60;;;15.56;41.58;93749.53;5047736;28;20534;-56
2023/01/19 03:04:53;;;;;;;39.53;4.77;;;15.40;57.50;;;15.55;41.29;93753.19;5045650;28;20455;-55
2023/01/19 03:07:27;;;;;;;33.83;4.10;;;15.30;57.40;;;15.54;41.43;93757.69;5035734;28;20498;-55
2023/01/19 03:09:58;;;;;;;38.83;4.10;;;15.30;57.40;;;15.54;41.34;93764.81;5045120;28;20448;-56
2023/01/19 03:12:28;;;;;;;26.07;3.70;;;15.30;57.20;;;15.52;41.31;93730.56;5045369;28;20983;-56
2023/01/19 03:14:59;;;;;;;39.73;3.83;;;15.30;57.10;;;15.51;41.36;93751.97;5045996;28;20455;-57
2023/01/19 03:17:28;;;;;;;24.33;3.50;;;15.30;57.20;;;15.49;41.33;93728.31;5046448;28;20944;-58
2023/01/19 03:19:55;;;;;;;38.90;4.93;;;15.30;57.20;;;15.50;40.82;93734.41;5045813;28;20553;-57
2023/01/19 03:22:25;;;;;;;22.00;4.20;;;15.30;56.70;;;15.50;40.88;93729.13;5045158;28;20463;-57
2023/01/19 03:24:54;;;;;;;26.80;3.80;;;15.30;56.60;;;15.49;40.99;93757.47;5043432;28;20448;-64
2023/01/19 03:27:25;;;;;;;24.27;3.93;;;15.30;56.80;;;15.50;40.76;93751.13;5038976;28;20937;-56
2023/01/19 03:29:53;;;;;;;33.67;4.40;;;15.30;56.40;;;15.49;40.82;93749.50;5042895;28;20452;-56
2023/01/19 03:32:28;;;;;;;32.03;3.80;;;15.30;56.30;;;15.50;40.75;93729.13;5046334;28;20471;-57
2023/01/19 03:34:55;;;;;;;28.10;3.93;;;15.30;56.20;;;15.48;40.84;93726.66;5045693;28;20455;-57
2023/01/19 03:37:22;;;;;;;48.67;4.40;;;15.30;56.40;;;15.49;40.86;93712.41;5046720;28;20455;-55
2023/01/19 03:39:50;;;;;;;25.37;4.20;;;15.30;56.40;;;15.48;40.90;93717.91;5046629;28;20872;-55
2023/01/19 03:42:17;;;;;;;25.17;4.17;;;15.30;56.60;;;15.47;40.92;93700.38;5043306;28;20471;-56
2023/01/19 03:44:45;;;;;;;36.13;4.13;;;15.30;56.60;;;15.47;40.75;93766.59;5045942;28;20468;-56
2023/01/19 03:47:13;;;;;;;27.77;4.83;;;15.20;56.40;;;15.46;40.75;93749.91;5046834;28;20896;-57
2023/01/19 03:49:42;;;;;;;50.80;4.53;;;15.30;56.30;;;15.46;40.98;93812.66;5045877;28;20451;-55
2023/01/19 03:52:10;;;;;;;28.87;4.37;;;15.30;56.50;;;15.45;41.04;93739.50;5045919;28;20518;-57
2023/01/19 03:54:37;;;;;;;35.43;4.63;;;15.30;56.60;;;15.44;40.87;93716.66;5041901;28;21106;-57
2023/01/19 03:57:04;;;;;;;19.63;3.07;;;15.20;56.60;;;15.42;41.10;93733.56;5045678;28;20533;-58
2023/01/19 03:59:31;;;;;;;40.80;6.53;;;15.20;56.70;;;15.42;41.10;93716.84;5045028;28;20926;-57
2023/01/19 04:01:59;;;;;;;33.07;3.03;;;15.30;56.60;;;15.39;41.09;93720.72;5044113;28;20463;-58
2023/01/19 04:04:26;;;;;;;26.93;4.10;;;15.20;56.60;;;15.39;40.93;93744.56;5046078;28;20476;-58
2023/01/19 04:06:55;;;;;;;45.10;4.10;;;15.20;56.60;;;15.39;40.93;93743.75;5046803;28;20448;-58
2023/01/19 04:09:22;;;;;;;28.37;3.30;;;15.20;56.40;;;15.38;40.95;93748.25;5044244;28;20616;-54
2023/01/19 04:11:49;;;;;;;65.27;5.13;;;15.20;56.50;;;15.35;40.81;93727.44;5044031;28;20468;-56
2023/01/19 04:14:16;;;;;;;32.77;4.93;;;15.20;56.20;;;15.35;40.72;93743.34;5043552;28;20480;-57
2023/01/19 04:16:44;;;;;;;29.00;5.33;;;15.20;56.00;;;15.36;40.66;93713.16;5042463;28;20448;-57
2023/01/19 04:19:11;;;;;;;39.03;5.13;;;15.20;56.00;;;15.37;40.58;93708.69;5044915;28;20554;-56
2023/01/19 04:21:38;;;;;;;44.03;6.27;;;15.20;56.00;;;15.37;40.44;93756.38;5043266;28;20513;-57
2023/01/19 04:24:09;;;;;;;48.47;5.90;;;15.20;56.00;;;15.37;40.47;93729.88;5042699;28;20565;-58
2023/01/19 04:26:36;;;;;;;36.70;5.83;;;15.20;56.00;;;15.37;40.28;93714.78;5046293;28;20455;-57
2023/01/19 04:29:04;;;;;;;29.17;5.17;;;15.20;56.00;;;15.39;40.06;93718.06;5041216;28;20885;-57
2023/01/19 04:31:31;;;;;;;26.13;5.50;;;15.20;55.50;;;15.40;39.80;93714.41;5041748;28;20464;-57
2023/01/19 04:33:58;;;;;;;39.93;6.47;;;15.20;55.40;;;15.42;39.94;93730.09;5042980;28;20489;-56
2023/01/19 04:36:26;;;;;;;32.97;5.47;;;15.20;55.30;;;15.42;39.99;93728.25;5044860;28;20811;-57
2023/01/19 04:38:53;;;;;;;41.37;6.23;;;15.20;55.40;;;15.42;39.93;93754.75;5045214;28;20490;-56
2023/01/19 04:41:22;;;;;;;54.90;8.53;;;15.20;55.20;;;15.45;39.90;93752.75;5045018;28;20983;-55
2023/01/19 04:43:49;;;;;;;51.40;11.10;;;15.30;55.40;;;15.46;39.80;93743.75;5041416;28;20827;-57
2023/01/19 04:46:16;;;;;;;51.03;6.80;;;15.30;55.20;;;15.47;39.79;93737.47;5040099;28;20844;-57
2023/01/19 04:48:44;;;;;;;32.10;5.23;;;15.30;55.00;;;15.47;39.68;93766.59;5042440;28;21102;-56
2023/01/19 04:51:11;;;;;;;58.17;6.40;;;15.30;55.20;;;15.51;39.04;93762.56;5045394;28;20522;-58
2023/01/19 04:53:38;;;;;;;33.87;5.30;;;15.30;54.70;;;15.54;39.49;93754.22;5044890;28;20486;-58
2023/01/19 04:56:06;;;;;;;57.23;7.53;;;15.30;54.70;;;15.55;39.32;93767.28;5041296;28;20507;-57
2023/01/19 04:58:35;;;;;;;46.73;5.60;;;15.30;54.60;;;15.58;39.40;93763.38;5044327;28;20541;-56
2023/01/19 05:01:02;;;;;;;38.87;6.40;;;15.40;54.60;;;15.60;39.40;93783.38;5042657;28;20486;-56
2023/01/19 05:03:29;;;;;;;29.33;5.33;;;15.40;54.70;;;15.61;39.46;93792.16;5039350;28;20480;-55
2023/01/19 05:05:57;;;;;;;68.03;7.40;;;15.40;54.70;;;15.62;39.64;93808.88;5043409;28;20842;-56
2023/01/19 05:08:24;;;;;;;41.20;5.63;;;15.40;54.80;;;15.62;39.33;93815.00;5041137;28;21037;-56
2023/01/19 05:10:51;;;;;;;49.70;7.20;;;15.40;54.80;;;15.63;39.73;93814.00;5042782;28;20457;-56
2023/01/19 05:13:19;;;;;;;42.97;6.70;;;15.40;54.80;;;15.65;39.69;93814.59;5040127;28;20482;-56
2023/01/19 05:15:47;;;;;;;40.33;6.20;;;15.40;55.00;;;15.64;39.65;93820.91;5043094;28;20463;-57
2023/01/19 05:18:14;;;;;;;49.00;4.80;;;15.40;54.80;;;15.63;39.73;93824.59;5045651;28;20496;-58
2023/01/19 05:20:42;;;;;;;40.13;4.83;;;15.40;54.80;;;15.63;39.74;93819.28;5044960;28;20564;-56
2023/01/19 05:23:09;;;;;;;45.13;5.20;;;15.50;54.90;;;15.61;39.49;93823.94;5045202;28;20468;-58
2023/01/19 05:25:36;;;;;;;41.50;5.87;;;15.40;54.80;;;15.61;39.61;93813.34;5045225;28;20845;-57
2023/01/19 05:28:04;;;;;;;37.47;6.60;;;15.40;54.80;;;15.59;39.62;93818.84;5045278;28;20964;-57
2023/01/19 05:30:31;;;;;;;31.80;5.53;;;15.40;54.90;;;15.58;39.96;93821.69;5044916;28;20505;-56
2023/01/19 05:33:00;;;;;;;36.67;7.97;;;15.40;55.00;;;15.55;39.98;93806.19;5043897;28;20537;-56
2023/01/19 05:35:27;;;;;;;52.43;6.03;;;15.40;55.10;;;15.56;39.95;93813.94;5045040;28;20459;-58
2023/01/19 05:37:54;;;;;;;30.97;4.87;;;15.40;55.10;;;15.54;39.93;93810.69;5043958;28;20476;-57
2023/01/19 05:40:21;;;;;;;39.60;5.70;;;15.30;55.10;;;15.54;39.63;93831.06;5042318;28;20503;-58
2023/01/19 05:42:49;;;;;;;49.00;6.57;;;15.30;54.90;;;15.55;39.80;93830.03;5042308;28;20479;-57
2023/01/19 05:45:16;;;;;;;39.77;5.70;;;15.30;55.00;;;15.55;40.14;93838.00;5041817;28;20588;-56
2023/01/19 05:47:43;;;;;;;36.97;6.00;;;15.30;55.20;;;15.55;39.91;93838.00;5042497;28;20529;-57
2023/01/19 05:50:13;;;;;;;48.33;5.50;;;15.40;55.20;;;15.53;39.81;93871.81;5043078;28;20863;-57
2023/01/19 05:52:40;;;;;;;38.23;6.83;;;15.30;55.00;;;15.53;39.82;93835.53;5043391;28;20476;-56
2023/01/19 05:55:09;;;;;;;47.83;7.20;;;15.30;54.70;;;15.53;39.71;93845.31;5046454;28;20983;-58
2023/01/19 05:57:36;;;;;;;38.67;5.50;;;15.30;54.90;;;15.53;39.52;93850.63;5048068;28;20464;-58
2023/01/19 06:00:04;;;;;;;48.23;6.50;;;15.30;54.70;;;15.54;39.64;93837.19;5048702;28;20559;-58
2023/01/19 06:02:31;;;;;;;46.53;6.20;;;15.30;54.80;;;15.55;39.68;93844.13;5043310;28;20921;-57
2023/01/19 06:04:59;;;;;;;50.40;7.50;;;15.40;54.80;;;15.57;39.42;93842.09;5044774;28;20487;-57
2023/01/19 06:07:27;;;;;;;44.90;6.83;;;15.30;54.50;;;15.59;39.62;93852.50;5044813;28;20836;-56
2023/01/19 06:09:55;;;;;;;44.17;6.37;;;15.40;54.70;;;15.61;39.42;93850.47;5044157;28;20454;-57
2023/01/19 06:12:22;;;;;;;51.30;5.73;;;15.40;54.60;;;15.62;39.33;93828.25;5048496;28;20585;-58
2023/01/19 06:14:49;;;;;;;35.37;6.13;;;15.40;54.40;;;15.67;39.07;93852.31;5048914;28;20451;-59
2023/01/19 06:17:17;;;;;;;40.13;6.03;;;15.40;53.90;;;15.71;39.13;93836.88;5049194;28;20448;-58
2023/01/19 06:19:44;;;;;;;46.20;5.77;;;15.50;54.00;;;15.76;39.12;93840.53;5048609;28;20517;-57
2023/01/19 06:22:11;;;;;;;44.27;7.20;;;15.50;54.20;;;15.82;39.31;93852.22;5047878;28;21022;-60
2023/01/19 06:24:40;;;;;;;62.63;7.23;;;15.60;54.50;;;15.89;39.28;93860.22;5048504;28;20475;-57
2023/01/19 06:27:08;;;;;;;44.50;6.43;;;15.60;54.50;;;15.94;39.32;93812.69;5047824;28;20452;-57
2023/01/19 06:29:35;;;;;;;43.57;6.63;;;15.70;54.40;;;16.01;39.11;93842.72;5047985;28;20491;-57
2023/01/19 06:32:02;;;;;;;55.23;7.50;;;15.80;54.50;;;16.06;38.57;93868.66;5046749;28;20888;-59
2023/01/19 06:34:29;;;;;;;55.20;8.63;;;15.80;53.80;;;16.11;38.51;93859.09;5047929;28;21034;-57
2023/01/19 06:36:57;;;;;;;58.87;7.57;;;15.90;53.50;;;16.18;38.30;93837.88;5046953;28;20960;-58
2023/01/19 06:39:24;;;;;;;53.63;6.80;;;16.00;53.60;;;16.28;38.38;93832.19;5047088;28;20472;-56
2023/01/19 06:41:53;;;;;;;35.40;6.70;;;16.00;53.50;;;16.39;38.24;93854.66;5045041;28;20464;-58
2023/01/19 06:44:20;;;;;;;39.43;6.30;;;16.10;53.30;;;16.51;38.47;93868.16;5047909;28;20807;-58
2023/01/19 06:46:47;;;;;;;50.97;6.30;;;16.30;53.60;;;16.67;38.45;93831.44;5047507;28;20463;-57
2023/01/19 06:49:15;;;;;;;51.23;7.77;;;16.40;53.40;;;16.84;38.12;93837.16;5047991;28;20499;-58
2023/01/19 06:51:42;;;;;;;49.83;6.67;;;16.60;53.50;;;16.97;37.88;93854.16;5047702;28;20845;-56
2023/01/19 06:54:09;;;;;;;47.17;7.57;;;16.70;53.30;;;16.98;37.66;93851.31;5047928;28;20545;-56
2023/01/19 06:56:37;;;;;;;40.63;6.80;;;16.80;53.00;;;17.07;37.99;93859.91;5047717;28;20460;-58
2023/01/19 06:59:05;;;;;;;68.27;6.37;;;16.90;53.10;;;17.19;37.59;93858.22;5047825;28;20534;-57
2023/01/19 07:01:33;;;;;;;48.57;8.30;;;17.00;53.00;;;17.35;37.54;93840.22;5047656;28;20586;-57
2023/01/19 07:04:00;;;;;;;41.17;7.90;;;17.20;52.90;;;17.54;37.55;93854.53;5047912;28;20995;-60
2023/01/19 07:06:28;;;;;;;58.37;6.77;;;17.30;52.80;;;17.73;37.28;93835.00;5046651;28;20456;-57
2023/01/19 07:08:55;;;;;;;51.23;7.33;;;17.50;52.40;;;17.86;36.73;93842.16;5041126;28;21055;-56
2023/01/19 07:11:22;;;;;;;55.97;5.93;;;17.70;51.80;;;17.92;36.51;93853.81;5047946;28;20525;-58
2023/01/19 07:13:53;;;;;;;58.77;7.67;;;17.80;51.40;;;17.93;35.86;93844.81;5047592;28;20533;-58
2023/01/19 07:16:22;;;;;;;41.90;5.47;;;17.80;51.00;;;18.00;35.55;93840.28;5047480;28;20455;-56
2023/01/19 07:18:49;;;;;;;53.77;6.93;;;17.90;50.60;;;18.13;35.42;93854.56;5047075;28;20841;-57
2023/01/19 07:21:17;;;;;;;55.03;7.60;;;18.10;50.00;;;18.33;35.74;93851.81;5046740;28;20539;-57
2023/01/19 07:23:44;;;;;;;37.07;7.23;;;18.30;50.50;;;18.56;34.99;93875.22;5047335;28;20476;-58
2023/01/19 07:26:14;;;;;;;60.87;8.90;;;18.50;49.40;;;18.69;34.56;93850.38;5046774;28;21088;-57
2023/01/19 07:28:41;;;;;;;73.47;7.23;;;18.70;48.70;;;18.79;33.70;93888.00;5045031;28;20567;-57
2023/01/19 07:31:09;;;;;;;52.87;7.93;;;18.80;48.20;;;18.89;33.68;93852.94;5042768;28;20443;-57
2023/01/19 07:33:38;;;;;;;56.03;7.50;;;18.90;47.70;;;19.01;33.46;93829.88;5045022;28;20547;-57
2023/01/19 07:36:05;;;;;;;77.13;9.27;;;19.00;48.30;;;19.17;33.37;93839.16;5046618;28;20459;-58
2023/01/19 07:38:33;;;;;;;54.20;7.60;;;19.10;48.20;;;19.33;33.60;93841.28;5046748;28;20468;-57
2023/01/19 07:41:01;;;;;;;83.87;9.80;;;19.30;48.10;;;19.39;32.90;93855.56;5046476;28;20538;-57
2023/01/19 07:43:28;;;;;;;39.37;6.40;;;19.30;47.60;;;19.41;33.40;93850.03;5046714;28;20559;-56
2023/01/19 07:45:57;;;;;;;55.27;8.20;;;19.30;47.30;;;19.47;33.00;93863.31;5046513;28;20606;-59
2023/01/19 07:48:24;;;;;;;56.53;6.97;;;19.30;47.50;;;19.58;33.30;93866.28;5043771;28;20995;-57
2023/01/19 07:50:52;;;;;;;53.13;8.77;;;19.30;47.20;;;19.74;32.50;93838.22;5046246;28;20463;-58
2023/01/19 07:53:21;;;;;;;44.80;7.67;;;19.40;47.30;;;19.99;32.70;93849.66;5046966;28;20551;-59
2023/01/19 07:55:55;;;;;;;48.57;7.73;;;19.60;47.10;;;20.14;31.65;93851.97;5046417;28;20452;-59
2023/01/19 07:58:22;;;;;;;43.53;7.17;;;19.80;46.00;;;20.21;31.85;93860.69;5046632;28;20551;-57
2023/01/19 08:00:50;;;;;;;56.13;8.50;;;19.90;45.80;;;20.30;31.56;93855.84;5046496;28;20483;-55
2023/01/19 08:03:17;;;;;;;57.27;7.43;;;19.90;45.50;;;20.34;32.02;93870.41;5045397;28;20475;-57
2023/01/19 08:05:45;;;;;;;68.37;8.40;;;20.00;45.60;;;20.31;31.39;93849.47;5045617;28;20452;-57
2023/01/19 08:08:13;;;;;;;41.57;7.37;;;20.00;45.40;;;20.42;31.61;93851.38;5045077;28;20471;-56
2023/01/19 08:10:41;;;;;;;45.43;6.87;;;20.10;45.50;;;20.56;31.43;93851.22;5045775;28;20470;-56
2023/01/19 08:13:08;;;;;;;52.93;8.60;;;20.20;45.10;;;20.55;30.36;93865.59;5045728;28;20472;-56
2023/01/19 08:15:36;;;;;;;58.83;7.53;;;20.20;44.50;;;20.59;30.88;93861.44;5045994;28;20460;-58
2023/01/19 08:18:05;;;;;;;60.87;7.10;;;20.20;44.30;;;20.53;29.95;93851.66;5045799;28;20852;-59
2023/01/19 08:20:32;;;;;;;53.60;7.60;;;20.20;43.40;;;20.55;30.96;93876.28;5045800;28;20491;-56
2023/01/19 08:23:01;;;;;;;52.27;6.67;;;20.20;44.20;;;20.77;30.02;93874.78;5045783;28;20550;-57
2023/01/19 08:25:34;;;;;;;36.77;6.70;;;20.30;43.80;;;20.97;29.63;93871.00;5044721;28;20455;-58
2023/01/19 08:28:01;;;;;;;52.20;8.23;;;20.50;43.40;;;20.98;29.79;93858.47;5043109;28;20553;-57
2023/01/19 08:30:29;;;;;;;68.50;7.47;;;20.60;43.10;;;21.11;30.28;93859.03;5045890;28;20448;-58
2023/01/19 08:33:02;;;;;;;56.90;6.80;;;20.70;43.80;;;21.28;29.79;93858.38;5040432;28;21316;-57
2023/01/19 08:35:30;;;;;;;67.70;8.90;;;20.80;43.30;;;21.35;29.53;93858.25;5043854;28;20888;-57
2023/01/19 08:38:00;;;;;;;79.67;7.90;;;20.90;42.90;;;21.31;29.53;93882.78;5045605;28;20499;-57
2023/01/19 08:40:27;;;;;;;67.93;7.80;;;20.90;42.80;;;21.29;28.94;93894.78;5046037;28;20514;-56
2023/01/19 08:43:03;;;;;;;54.97;7.90;;;20.90;42.40;;;21.24;28.97;93876.75;5045439;28;21030;-57
2023/01/19 08:45:30;;;;;;;44.87;7.03;;;20.80;42.20;;;21.19;29.40;93891.84;5045660;28;20967;-57
2023/01/19 08:47:59;;;;;;;47.33;7.40;;;20.70;42.10;;;21.20;29.46;93872.91;5045334;28;20476;-59
2023/01/19 08:50:26;;;;;;;70.53;9.27;;;20.70;42.70;;;21.34;29.79;93881.53;5045586;28;20464;-57
2023/01/19 08:52:55;;;;;;;46.00;7.30;;;20.80;43.10;;;21.54;29.80;93880.41;5041626;28;20583;-57
2023/01/19 08:55:23;;;;;;;38.80;6.93;;;21.00;43.30;;;21.70;29.39;93878.91;5045686;28;20483;-57
2023/01/19 08:57:52;;;;;;;50.10;7.70;;;21.10;42.60;;;21.60;28.51;93882.16;5045124;28;20474;-58
2023/01/19 09:00:21;;;;;;;36.00;6.80;;;21.10;41.40;;;21.46;28.62;93909.09;5045542;28;20842;-58
2023/01/19 09:02:49;;;;;;;52.50;5.10;;;21.00;41.50;;;21.38;28.85;93909.44;5045110;28;20479;-58
2023/01/19 09:05:16;;;;;;;70.97;7.97;;;20.90;41.60;;;21.26;28.88;93897.91;5045121;28;20529;-58
2023/01/19 09:07:44;;;;;;;40.50;5.13;;;20.80;41.50;;;21.27;29.12;93867.44;5044747;28;20468;-57
2023/01/19 09:10:12;;;;;;;42.90;8.60;;;20.80;42.00;;;21.30;29.17;93866.97;5045906;28;20456;-57
2023/01/19 09:12:39;;;;;;;53.40;7.17;;;20.80;42.20;;;21.35;29.22;93880.50;5045383;28;20469;-58
2023/01/19 09:15:09;;;;;;;30.57;6.07;;;20.90;42.00;;;21.38;28.81;93877.34;5045283;28;20447;-58
2023/01/19 09:17:38;;;;;;;58.10;7.00;;;20.90;41.70;;;21.43;28.84;93872.13;5045316;28;20800;-57
2023/01/19 09:20:06;;;;;;;40.17;5.90;;;20.90;41.70;;;21.58;29.28;93881.56;5045081;28;20565;-56
2023/01/19 09:22:34;;;;;;;43.33;6.23;;;21.00;42.10;;;21.66;28.72;93891.94;5045005;28;20507;-57
2023/01/19 09:25:01;;;;;;;50.40;6.10;;;21.10;41.60;;;21.72;28.60;93874.94;5045533;28;20562;-58
2023/01/19 09:27:28;;;;;;;65.23;6.20;;;21.20;41.60;;;21.76;28.80;93894.03;5045283;28;20451;-58
2023/01/19 09:29:56;;;;;;;37.57;6.20;;;21.20;41.60;;;21.73;28.35;93911.34;5050661;28;20452;-59
2023/01/19 09:32:23;;;;;;;47.50;6.23;;;21.20;41.30;;;21.49;28.71;93871.22;5050659;28;20460;-58
2023/01/19 09:34:52;;;;;;;34.27;6.30;;;21.00;41.30;;;21.30;28.69;93883.03;5050766;28;20451;-58
2023/01/19 09:37:20;;;;;;;50.20;5.83;;;20.90;41.50;;;21.30;29.11;93883.03;5051412;28;20456;-58
2023/01/19 09:39:47;;;;;;;45.27;5.90;;;20.90;41.80;;;21.19;29.09;93873.13;5051489;28;20984;-58
2023/01/19 09:42:19;;;;;;;35.23;4.93;;;20.70;41.60;;;20.93;28.96;93886.69;5051639;28;20581;-57
2023/01/19 09:44:46;;;;;;;32.47;5.50;;;20.60;41.70;;;20.66;29.30;93864.06;5047393;28;20452;-58
2023/01/19 09:47:15;;;;;;;37.63;7.77;;;20.30;41.50;;;20.59;29.62;93888.97;5046046;28;20459;-57
2023/01/19 09:49:44;;;;;;;26.87;5.83;;;20.20;41.90;;;20.66;29.42;93899.59;5047355;28;20455;-59
2023/01/19 09:52:13;;;;;;;27.07;4.50;;;20.30;42.10;;;20.78;29.44;93871.06;5051496;28;20483;-57
2023/01/19 09:54:43;;;;;;;36.17;5.87;;;20.40;42.50;;;21.01;29.19;93866.03;5050539;28;20452;-58
2023/01/19 09:57:11;;;;;;;19.73;4.70;;;20.50;42.10;;;21.25;29.35;93843.59;5050237;28;20971;-56
2023/01/19 09:59:38;;;;;;;44.93;6.50;;;20.70;42.30;;;21.56;29.18;93844.34;5047688;28;20452;-57
2023/01/19 10:02:33;;;;;;;30.03;5.83;;;20.90;42.20;;;21.88;28.96;93852.00;5050894;28;20502;-58
2023/01/19 10:05:01;;;;;;;36.87;4.73;;;21.20;41.70;;;22.01;27.94;93862.47;5047318;28;20490;-57
2023/01/19 10:07:47;;;;;;;26.07;4.10;;;21.40;40.80;;;21.98;27.79;93840.69;5050837;28;20979;-57
2023/01/19 10:10:20;;;;;;;29.73;3.97;;;21.50;40.40;;;21.92;27.94;93884.47;5047775;28;20447;-58
2023/01/19 10:13:29;;;;;;;32.77;5.03;;;21.40;40.40;;;21.88;28.27;93948.38;5047838;28;20528;-57
2023/01/19 10:16:07;;;;;;;26.93;3.70;;;21.40;40.90;;;21.85;28.29;93865.84;5016314;28;20910;-58
2023/01/19 10:18:46;;;;;;;30.63;4.90;;;21.40;40.60;;;21.89;28.03;93880.41;5047496;28;21454;-59
2023/01/19 10:21:17;;;;;;;35.90;5.90;;;21.40;40.60;;;21.93;28.24;93862.00;5051406;28;20475;-59
2023/01/19 10:23:49;;;;;;;21.83;4.73;;;21.40;40.80;;;21.87;28.46;93841.53;5051219;28;20475;-57
2023/01/19 10:26:18;;;;;;;30.50;4.70;;;21.40;41.10;;;22.03;28.19;93851.53;5051469;28;21025;-58
2023/01/19 10:28:48;;;;;;;29.07;4.60;;;21.50;40.80;;;22.17;27.36;93839.47;5051287;28;20475;-58